createdAt,value
2022-10-19T00:01:23.903Z,91.20
2022-10-19T00:03:54.480Z,91.30
2022-10-19T00:06:25.980Z,91.60
2022-10-19T00:08:58.784Z,91.70
2022-10-19T00:11:27.690Z,91.80
2022-10-19T00:13:57.929Z,91.90
2022-10-19T00:16:28.537Z,91.70
2022-10-19T00:18:58.517Z,91.60
2022-10-19T00:21:27.957Z,91.60
2022-10-19T00:23:57.638Z,90.40
2022-10-19T00:26:26.214Z,90.60
2022-10-19T00:28:55.848Z,90.90
2022-10-19T00:31:25.170Z,91.20
2022-10-19T00:33:53.737Z,91.30
2022-10-19T00:36:25.777Z,91.00
2022-10-19T00:38:55.827Z,90.70
2022-10-19T00:41:28.086Z,90.20
2022-10-19T00:43:58.987Z,90.30
2022-10-19T00:46:28.718Z,90.60
2022-10-19T00:49:04.875Z,91.00
2022-10-19T00:51:38.314Z,91.20
2022-10-19T00:54:09.612Z,91.40
2022-10-19T00:56:42.762Z,91.70
2022-10-19T00:59:11.994Z,91.70
2022-10-19T01:01:40.530Z,91.60
2022-10-19T01:04:09.985Z,91.10
2022-10-19T01:06:38.769Z,91.10
2022-10-19T01:09:07.632Z,91.30
2022-10-19T01:11:47.918Z,91.40
2022-10-19T01:14:34.288Z,91.50
2022-10-19T01:17:12.836Z,91.50
2022-10-19T01:20:27.392Z,91.10
2022-10-19T01:23:10.671Z,90.50
2022-10-19T01:25:55.302Z,90.20
2022-10-19T01:28:44.744Z,90.40
2022-10-19T01:31:25.966Z,90.80
2022-10-19T01:33:59.954Z,91.10
2022-10-19T01:36:41.495Z,91.30
2022-10-19T01:39:16.142Z,91.70
2022-10-19T01:41:52.054Z,92.00
2022-10-19T01:44:28.742Z,91.90
2022-10-19T01:47:03.646Z,91.80
2022-10-19T01:49:43.962Z,91.60
2022-10-19T01:52:17.331Z,91.90
2022-10-19T01:54:52.817Z,92.00
2022-10-19T01:57:26.979Z,92.10
2022-10-19T01:59:57.030Z,92.30
2022-10-19T02:02:28.613Z,92.30
2022-10-19T02:04:59.008Z,92.10
2022-10-19T02:07:28.212Z,92.00
2022-10-19T02:09:57.887Z,92.10
2022-10-19T02:12:27.786Z,92.10
2022-10-19T02:15:00.791Z,92.10
2022-10-19T02:17:35.829Z,92.20
2022-10-19T02:20:05.646Z,92.10
2022-10-19T02:22:34.338Z,91.90
2022-10-19T02:25:03.451Z,91.50
2022-10-19T02:27:31.754Z,91.30
2022-10-19T02:30:00.132Z,91.30
2022-10-19T02:32:29.982Z,91.10
2022-10-19T02:34:58.262Z,91.30
2022-10-19T02:37:26.693Z,91.80
2022-10-19T02:39:55.006Z,92.10
2022-10-19T02:42:30.777Z,92.10
2022-10-19T02:45:04.192Z,92.20
2022-10-19T02:47:37.904Z,92.30
2022-10-19T02:50:09.194Z,92.20
2022-10-19T02:52:38.755Z,92.20
2022-10-19T02:55:08.586Z,92.30
2022-10-19T02:57:37.650Z,92.20
2022-10-19T03:00:07.646Z,92.30
2022-10-19T03:02:37.338Z,92.30
2022-10-19T03:05:06.052Z,92.30
2022-10-19T03:07:34.611Z,92.30
2022-10-19T03:10:03.207Z,92.40
2022-10-19T03:12:31.414Z,92.50
2022-10-19T03:14:59.696Z,92.40
2022-10-19T03:17:27.990Z,92.40
2022-10-19T03:19:57.646Z,92.40
2022-10-19T03:22:25.980Z,92.40
2022-10-19T03:24:54.245Z,92.60
2022-10-19T03:27:22.439Z,92.00
2022-10-19T03:29:50.624Z,91.40
2022-10-19T03:32:19.006Z,91.20
2022-10-19T03:34:47.221Z,91.40
2022-10-19T03:37:16.809Z,91.60
2022-10-19T03:39:45.021Z,91.10
2022-10-19T03:42:13.272Z,90.70
2022-10-19T03:44:41.479Z,90.20
2022-10-19T03:47:09.747Z,90.50
2022-10-19T03:49:40.220Z,90.80
2022-10-19T03:52:10.144Z,91.10
2022-10-19T03:54:40.091Z,91.30
2022-10-19T03:57:08.312Z,91.40
2022-10-19T03:59:36.595Z,91.70
2022-10-19T04:02:05.686Z,91.70
2022-10-19T04:04:34.041Z,91.70
2022-10-19T04:07:02.254Z,92.10
2022-10-19T04:09:30.596Z,92.20
2022-10-19T04:12:00.150Z,92.30
2022-10-19T04:14:33.136Z,92.50
2022-10-19T04:17:07.452Z,92.90
2022-10-19T04:19:35.739Z,93.00
2022-10-19T04:22:04.125Z,93.10
2022-10-19T04:24:32.338Z,93.20
2022-10-19T04:27:02.636Z,93.20
2022-10-19T04:29:30.968Z,93.30
2022-10-19T04:31:59.888Z,93.30
2022-10-19T04:34:28.137Z,93.30
2022-10-19T04:36:59.323Z,93.30
2022-10-19T04:39:27.747Z,93.40
2022-10-19T04:41:56.045Z,93.30
2022-10-19T04:44:25.696Z,93.30
2022-10-19T04:46:53.944Z,93.30
2022-10-19T04:49:22.161Z,93.30
2022-10-19T04:51:50.456Z,93.30
2022-10-19T04:54:18.752Z,93.30
2022-10-19T04:56:47.227Z,93.30
2022-10-19T04:59:15.466Z,93.30
2022-10-19T05:01:47.206Z,93.20
2022-10-19T05:04:15.634Z,93.20
2022-10-19T05:06:43.892Z,93.30
2022-10-19T05:09:12.319Z,93.40
2022-10-19T05:11:40.555Z,93.30
2022-10-19T05:14:08.943Z,93.20
2022-10-19T05:16:37.263Z,93.20
2022-10-19T05:19:06.865Z,93.10
2022-10-19T05:21:35.128Z,93.10
2022-10-19T05:24:03.928Z,93.10
2022-10-19T05:26:32.246Z,93.10
2022-10-19T05:29:04.362Z,93.10
2022-10-19T05:31:34.733Z,93.20
2022-10-19T05:34:04.075Z,93.20
2022-10-19T05:36:36.994Z,93.30
2022-10-19T05:39:08.033Z,93.40
2022-10-19T05:41:36.462Z,93.40
2022-10-19T05:44:06.482Z,93.40
2022-10-19T05:46:36.223Z,93.40
2022-10-19T05:49:04.783Z,93.50
2022-10-19T05:51:34.401Z,93.50
2022-10-19T05:54:03.977Z,93.50
2022-10-19T05:56:33.827Z,93.40
2022-10-19T05:59:06.691Z,93.40
2022-10-19T06:01:36.543Z,93.40
2022-10-19T06:04:07.118Z,93.50
2022-10-19T06:06:36.839Z,93.40
2022-10-19T06:09:05.572Z,93.40
2022-10-19T06:11:35.613Z,93.30
2022-10-19T06:14:06.468Z,93.30
2022-10-19T06:16:35.904Z,93.30
2022-10-19T06:19:05.596Z,93.30
2022-10-19T06:21:37.826Z,93.30
2022-10-19T06:24:07.924Z,93.30
2022-10-19T06:26:36.985Z,93.40
2022-10-19T06:29:06.430Z,93.40
2022-10-19T06:31:37.323Z,93.50
2022-10-19T06:34:06.442Z,93.60
2022-10-19T06:36:36.464Z,93.60
2022-10-19T06:39:05.432Z,93.60
2022-10-19T06:41:34.332Z,93.60
2022-10-19T06:44:02.629Z,93.60
2022-10-19T06:46:32.288Z,93.60
2022-10-19T06:49:03.102Z,93.60
2022-10-19T06:51:34.114Z,93.70
2022-10-19T06:54:03.611Z,93.70
2022-10-19T06:56:31.815Z,93.70
2022-10-19T06:59:00.871Z,93.80
2022-10-19T07:01:29.307Z,93.80
2022-10-19T07:03:57.701Z,93.80
2022-10-19T07:06:28.390Z,93.80
2022-10-19T07:08:56.633Z,93.80
2022-10-19T07:11:26.372Z,93.90
2022-10-19T07:13:54.936Z,93.90
2022-10-19T07:16:23.745Z,93.90
2022-10-19T07:18:54.097Z,93.90
2022-10-19T07:21:24.206Z,93.80
2022-10-19T07:23:52.638Z,93.70
2022-10-19T07:26:26.246Z,93.70
2022-10-19T07:28:58.282Z,93.70
2022-10-19T07:31:28.969Z,93.60
2022-10-19T07:33:59.277Z,93.50
2022-10-19T07:36:28.820Z,93.20
2022-10-19T07:38:57.456Z,93.10
2022-10-19T07:41:27.688Z,93.10
2022-10-19T07:43:57.892Z,92.90
2022-10-19T07:46:33.399Z,92.70
2022-10-19T07:49:01.919Z,92.70
2022-10-19T07:51:30.215Z,92.50
2022-10-19T07:53:59.783Z,92.40
2022-10-19T07:56:29.401Z,92.00
2022-10-19T07:59:01.448Z,91.80
2022-10-19T08:01:32.323Z,91.60
2022-10-19T08:06:50.838Z,91.70
2022-10-19T08:09:47.187Z,91.10
2022-10-19T08:12:12.351Z,91.20
2022-10-19T08:14:44.384Z,90.60
2022-10-19T08:17:16.801Z,90.50
2022-10-19T08:19:45.315Z,90.20
2022-10-19T08:22:13.788Z,90.40
2022-10-19T08:24:42.107Z,90.10
2022-10-19T08:27:10.419Z,89.60
2022-10-19T08:29:38.662Z,89.40
2022-10-19T08:32:08.545Z,89.50
2022-10-19T08:34:36.819Z,89.30
2022-10-19T08:37:14.663Z,88.90
2022-10-19T08:39:53.500Z,88.90
2022-10-19T08:42:30.583Z,88.30
2022-10-19T08:45:15.072Z,88.00
2022-10-19T08:48:00.615Z,87.60
2022-10-19T08:50:41.131Z,87.60
2022-10-19T08:53:15.468Z,87.20
2022-10-19T08:56:03.542Z,87.10
2022-10-19T08:58:50.216Z,85.70
2022-10-19T09:01:41.127Z,86.20
2022-10-19T09:04:20.238Z,85.60
2022-10-19T09:07:17.173Z,84.70
2022-10-19T09:09:50.771Z,84.80
2022-10-19T09:12:30.474Z,84.90
2022-10-19T09:15:06.475Z,84.90
2022-10-19T09:17:35.396Z,84.60
2022-10-19T09:20:18.536Z,83.60
2022-10-19T09:22:52.807Z,82.90
2022-10-19T09:25:23.149Z,83.40
2022-10-19T09:30:39.210Z,83.70
2022-10-19T09:33:16.173Z,83.10
2022-10-19T09:35:47.834Z,81.90
2022-10-19T09:38:17.837Z,81.30
2022-10-19T09:40:46.256Z,82.20
2022-10-19T09:43:21.643Z,81.40
2022-10-19T09:45:54.645Z,81.10
2022-10-19T09:48:30.960Z,81.60
2022-10-19T09:51:04.573Z,81.60
2022-10-19T09:53:32.950Z,80.60
2022-10-19T09:56:06.242Z,80.90
2022-10-19T09:58:36.007Z,80.20
2022-10-19T10:01:04.737Z,78.80
2022-10-19T10:03:36.395Z,78.80
2022-10-19T10:06:09.055Z,80.60
2022-10-19T10:08:41.500Z,79.30
2022-10-19T10:11:13.923Z,79.20
2022-10-19T10:13:45.235Z,79.00
2022-10-19T10:16:19.284Z,78.20
2022-10-19T10:18:56.111Z,79.00
2022-10-19T10:21:27.604Z,79.60
2022-10-19T10:24:11.778Z,79.30
2022-10-19T10:26:42.453Z,78.20
2022-10-19T10:29:22.900Z,77.60
2022-10-19T10:31:54.581Z,77.60
2022-10-19T10:34:49.439Z,76.60
2022-10-19T10:37:24.592Z,75.70
2022-10-19T10:39:57.717Z,75.60
2022-10-19T10:42:34.974Z,76.00
2022-10-19T10:45:04.707Z,75.00
2022-10-19T10:47:33.383Z,73.80
2022-10-19T10:50:06.478Z,72.90
2022-10-19T10:52:37.369Z,73.60
2022-10-19T10:55:18.955Z,71.40
2022-10-19T10:57:51.955Z,71.80
2022-10-19T11:00:24.125Z,71.70
2022-10-19T11:02:58.269Z,72.70
2022-10-19T11:05:30.940Z,71.30
2022-10-19T11:08:14.134Z,71.40
2022-10-19T11:10:50.375Z,71.10
2022-10-19T11:13:27.257Z,70.50
2022-10-19T11:16:00.175Z,71.80
2022-10-19T11:18:35.863Z,71.60
2022-10-19T11:21:10.867Z,71.70
2022-10-19T11:24:03.399Z,70.70
2022-10-19T11:26:49.384Z,71.70
2022-10-19T11:29:39.390Z,70.60
2022-10-19T11:32:18.731Z,69.20
2022-10-19T11:35:04.568Z,69.60
2022-10-19T11:37:50.215Z,69.40
2022-10-19T11:40:45.791Z,67.90
2022-10-19T11:43:32.340Z,68.60
2022-10-19T11:46:10.359Z,70.00
2022-10-19T11:48:56.862Z,68.20
2022-10-19T11:51:36.791Z,68.00
2022-10-19T11:54:28.763Z,68.70
2022-10-19T11:57:09.347Z,69.10
2022-10-19T11:59:57.576Z,68.70
2022-10-19T12:03:21.206Z,67.20
2022-10-19T12:06:08.025Z,69.30
2022-10-19T12:08:56.362Z,68.70
2022-10-19T12:11:40.049Z,69.40
2022-10-19T12:14:15.183Z,68.50
2022-10-19T12:16:55.571Z,69.00
2022-10-19T12:19:27.396Z,68.50
2022-10-19T12:22:00.161Z,68.80
2022-10-19T12:24:30.818Z,68.00
2022-10-19T12:27:00.262Z,67.80
2022-10-19T12:29:35.660Z,68.40
2022-10-19T12:32:06.289Z,68.90
2022-10-19T12:34:46.083Z,68.80
2022-10-19T12:37:23.744Z,67.70
2022-10-19T12:39:58.763Z,67.50
2022-10-19T12:42:32.344Z,68.30
2022-10-19T12:45:19.349Z,68.20
2022-10-19T12:48:21.017Z,68.40
2022-10-19T12:51:08.987Z,68.40
2022-10-19T12:53:39.807Z,68.90
2022-10-19T12:56:12.518Z,68.40
2022-10-19T12:58:50.879Z,68.00
2022-10-19T13:01:25.945Z,67.80
2022-10-19T13:04:09.300Z,68.20
2022-10-19T13:06:40.813Z,67.90
2022-10-19T13:09:11.306Z,68.20
2022-10-19T13:12:27.852Z,68.10
2022-10-19T13:14:57.671Z,68.10
2022-10-19T13:17:46.273Z,67.50
2022-10-19T13:20:52.502Z,66.80
2022-10-19T13:23:42.867Z,67.30
2022-10-19T13:26:34.199Z,67.90
2022-10-19T13:29:03.035Z,68.00
2022-10-19T13:31:33.107Z,68.80
2022-10-19T13:34:11.270Z,68.70
2022-10-19T13:36:40.344Z,68.40
2022-10-19T13:39:18.085Z,69.50
2022-10-19T13:41:52.699Z,69.20
2022-10-19T13:44:30.990Z,69.40
2022-10-19T13:47:24.967Z,69.00
2022-10-19T13:50:18.408Z,69.30
2022-10-19T13:53:36.659Z,68.70
2022-10-19T13:56:41.835Z,69.30
2022-10-19T13:59:56.126Z,69.00
2022-10-19T14:03:19.223Z,69.50
2022-10-19T14:06:04.891Z,70.20
2022-10-19T14:08:55.719Z,69.50
2022-10-19T14:11:29.277Z,69.50
2022-10-19T14:14:20.341Z,69.70
2022-10-19T14:16:58.326Z,70.20
2022-10-19T14:19:32.118Z,70.20
2022-10-19T14:22:04.628Z,69.70
2022-10-19T14:24:35.070Z,70.50
2022-10-19T14:27:06.125Z,70.50
2022-10-19T14:29:45.095Z,71.00
2022-10-19T14:32:14.111Z,71.00
2022-10-19T14:34:42.942Z,70.70
2022-10-19T14:37:20.279Z,71.70
2022-10-19T14:40:08.991Z,72.00
2022-10-19T14:42:44.856Z,71.00
2022-10-19T14:45:19.956Z,71.50
2022-10-19T14:47:58.100Z,71.70
2022-10-19T14:50:41.655Z,70.70
2022-10-19T14:53:30.363Z,71.40
2022-10-19T14:56:03.770Z,71.30
2022-10-19T14:58:38.747Z,70.70
2022-10-19T15:01:08.844Z,71.00
2022-10-19T15:03:40.214Z,70.60
2022-10-19T15:06:21.375Z,70.40
2022-10-19T15:08:55.065Z,70.80
2022-10-19T15:11:28.368Z,70.20
2022-10-19T15:14:01.842Z,70.10
2022-10-19T15:16:34.243Z,70.20
2022-10-19T15:19:07.803Z,70.50
2022-10-19T15:21:36.128Z,70.30
2022-10-19T15:24:22.705Z,70.40
2022-10-19T15:27:08.818Z,70.00
2022-10-19T15:29:38.049Z,70.90
2022-10-19T15:32:25.108Z,71.10
2022-10-19T15:34:53.597Z,71.00
2022-10-19T15:37:24.150Z,71.00
2022-10-19T15:39:54.328Z,71.70
2022-10-19T15:42:25.453Z,71.70
2022-10-19T15:44:53.747Z,71.80
2022-10-19T15:47:24.954Z,71.90
2022-10-19T15:49:57.891Z,71.90
2022-10-19T15:52:27.475Z,72.40
2022-10-19T15:54:59.784Z,72.90
2022-10-19T15:57:31.475Z,72.80
2022-10-19T16:00:02.538Z,73.20
2022-10-19T16:02:30.605Z,73.20
2022-10-19T16:04:58.898Z,73.50
2022-10-19T16:07:29.792Z,73.80
2022-10-19T16:09:59.553Z,74.00
2022-10-19T16:12:28.716Z,73.90
2022-10-19T16:14:57.061Z,74.80
2022-10-19T16:17:25.564Z,74.50
2022-10-19T16:19:53.761Z,75.30
2022-10-19T16:22:22.115Z,75.20
2022-10-19T16:24:50.434Z,75.70
2022-10-19T16:27:20.090Z,75.70
2022-10-19T16:29:48.370Z,76.00
2022-10-19T16:32:16.871Z,76.20
2022-10-19T16:34:45.103Z,76.40
2022-10-19T16:37:13.473Z,76.50
2022-10-19T16:39:41.730Z,76.40
2022-10-19T16:42:10.063Z,76.70
2022-10-19T16:44:39.651Z,76.60
2022-10-19T16:47:07.933Z,77.00
2022-10-19T16:49:36.239Z,77.00
2022-10-19T16:52:06.157Z,77.10
2022-10-19T16:54:34.919Z,77.40
2022-10-19T16:57:08.741Z,77.50
2022-10-19T16:59:39.467Z,77.80
2022-10-19T17:02:08.440Z,77.80
2022-10-19T17:04:36.979Z,78.20
2022-10-19T17:07:05.256Z,78.20
2022-10-19T17:09:42.111Z,78.40
2022-10-19T17:12:11.556Z,78.60
2022-10-19T17:14:43.634Z,78.50
2022-10-19T17:17:12.907Z,78.90
2022-10-19T17:19:41.496Z,78.60
2022-10-19T17:22:09.769Z,78.80
2022-10-19T17:24:39.263Z,78.70
2022-10-19T17:27:07.921Z,79.20
2022-10-19T17:29:36.194Z,79.20
2022-10-19T17:32:06.347Z,79.20
2022-10-19T17:34:34.696Z,79.30
2022-10-19T17:37:02.964Z,79.40
2022-10-19T17:39:31.283Z,79.40
2022-10-19T17:42:02.078Z,79.70
2022-10-19T17:44:31.589Z,79.90
2022-10-19T17:47:01.613Z,79.70
2022-10-19T17:49:31.235Z,79.90
2022-10-19T17:51:59.896Z,80.10
2022-10-19T17:54:28.339Z,80.10
2022-10-19T17:56:56.789Z,80.10
2022-10-19T17:59:34.712Z,80.40
2022-10-19T18:02:04.365Z,80.40
2022-10-19T18:04:33.980Z,80.50
2022-10-19T18:07:02.252Z,80.60
2022-10-19T18:09:30.545Z,80.60
2022-10-19T18:12:01.376Z,80.80
2022-10-19T18:14:31.570Z,80.80
2022-10-19T18:16:59.804Z,80.90
2022-10-19T18:19:28.067Z,81.00
2022-10-19T18:21:57.711Z,81.10
2022-10-19T18:24:26.451Z,81.10
2022-10-19T18:26:54.868Z,81.20
2022-10-19T18:29:26.457Z,81.30
2022-10-19T18:31:55.014Z,81.40
2022-10-19T18:34:25.505Z,81.50
2022-10-19T18:36:54.343Z,81.50
2022-10-19T18:39:24.545Z,81.80
2022-10-19T18:41:54.559Z,81.80
2022-10-19T18:44:27.113Z,81.90
2022-10-19T18:46:57.186Z,81.90
2022-10-19T18:49:25.631Z,82.00
2022-10-19T18:51:55.714Z,82.10
2022-10-19T18:54:28.056Z,82.30
2022-10-19T18:56:56.929Z,82.30
2022-10-19T19:01:54.034Z,82.60
2022-10-19T19:04:22.360Z,82.80
2022-10-19T19:06:50.672Z,82.80
2022-10-19T19:09:19.230Z,82.90
2022-10-19T19:11:49.234Z,83.00
2022-10-19T19:14:21.019Z,83.20
2022-10-19T19:16:49.481Z,83.40
2022-10-19T19:19:19.803Z,83.50
2022-10-19T19:21:49.829Z,83.70
2022-10-19T19:24:21.847Z,83.80
2022-10-19T19:26:54.082Z,83.80
2022-10-19T19:29:23.267Z,83.80
2022-10-19T19:31:53.435Z,83.80
2022-10-19T19:34:21.865Z,83.90
2022-10-19T19:36:50.175Z,84.00
2022-10-19T19:39:20.952Z,84.00
2022-10-19T19:41:51.552Z,84.00
2022-10-19T19:44:20.253Z,84.00
2022-10-19T19:46:48.685Z,84.00
2022-10-19T19:49:17.176Z,84.00
2022-10-19T19:51:45.441Z,84.10
2022-10-19T19:54:13.728Z,83.90
2022-10-19T19:56:43.157Z,84.00
2022-10-19T19:59:13.919Z,84.00
2022-10-19T20:01:42.879Z,83.90
2022-10-19T20:04:12.217Z,83.90
2022-10-19T20:06:42.977Z,84.00
2022-10-19T20:09:11.696Z,84.00
2022-10-19T20:11:42.751Z,84.10
2022-10-19T20:14:12.839Z,84.00
2022-10-19T20:16:41.700Z,84.10
2022-10-19T20:19:12.950Z,84.00
2022-10-19T20:21:41.885Z,84.00
2022-10-19T20:24:11.228Z,83.90
2022-10-19T20:26:39.674Z,84.00
2022-10-19T20:29:08.105Z,84.00
2022-10-19T20:31:40.440Z,84.10
2022-10-19T20:34:11.204Z,84.10
2022-10-19T20:36:39.866Z,84.30
2022-10-19T20:39:08.229Z,84.30
2022-10-19T20:41:36.567Z,84.40
2022-10-19T20:44:04.927Z,84.40
2022-10-19T20:46:33.689Z,84.40
2022-10-19T20:49:03.519Z,84.50
2022-10-19T20:51:36.520Z,84.50
2022-10-19T20:54:07.511Z,84.50
2022-10-19T20:56:38.186Z,84.60
2022-10-19T20:59:09.471Z,84.60
2022-10-19T21:01:39.721Z,84.60
2022-10-19T21:04:11.771Z,84.70
2022-10-19T21:06:43.122Z,84.80
2022-10-19T21:09:12.981Z,84.80
2022-10-19T21:11:44.045Z,84.70
2022-10-19T21:14:15.365Z,84.80
2022-10-19T21:16:44.024Z,85.00
2022-10-19T21:19:17.242Z,84.90
2022-10-19T21:21:48.817Z,84.80
2022-10-19T21:24:20.206Z,85.00
2022-10-19T21:26:48.720Z,85.10
2022-10-19T21:29:18.037Z,85.20
2022-10-19T21:31:49.220Z,85.30
2022-10-19T21:34:21.760Z,85.40
2022-10-19T21:36:50.828Z,85.40
2022-10-19T21:39:19.877Z,85.40
2022-10-19T21:41:48.813Z,85.50
2022-10-19T21:44:18.989Z,85.40
2022-10-19T21:46:49.098Z,85.50
2022-10-19T21:49:19.160Z,85.60
2022-10-19T21:51:51.743Z,85.60
2022-10-19T21:54:24.701Z,85.80
2022-10-19T21:56:55.102Z,85.80
2022-10-19T21:59:23.371Z,85.90
2022-10-19T22:01:51.669Z,86.00
2022-10-19T22:04:21.956Z,86.00
2022-10-19T22:06:50.854Z,86.10
2022-10-19T22:09:21.570Z,86.20
2022-10-19T22:11:50.386Z,86.30
2022-10-19T22:14:19.332Z,86.40
2022-10-19T22:16:47.612Z,86.50
2022-10-19T22:19:15.923Z,86.50
2022-10-19T22:21:45.520Z,86.60
2022-10-19T22:24:16.473Z,86.50
2022-10-19T22:26:47.460Z,86.60
2022-10-19T22:29:16.236Z,86.70
2022-10-19T22:31:44.877Z,86.70
2022-10-19T22:34:15.754Z,86.80
2022-10-19T22:36:45.919Z,86.70
2022-10-19T22:39:15.506Z,86.70
2022-10-19T22:42:57.419Z,86.60
2022-10-19T22:45:25.672Z,86.60
2022-10-19T22:47:53.975Z,86.70
2022-10-19T22:50:22.250Z,86.80
2022-10-19T22:52:51.888Z,86.70
2022-10-19T22:55:20.168Z,86.70
2022-10-19T22:57:48.425Z,86.70
2022-10-19T23:00:17.176Z,86.70
2022-10-19T23:02:45.473Z,86.70
2022-10-19T23:05:13.789Z,86.70
2022-10-19T23:07:42.105Z,86.70
2022-10-19T23:10:12.101Z,86.80
2022-10-19T23:12:40.551Z,86.70
2022-10-19T23:15:10.696Z,86.70
2022-10-19T23:17:38.995Z,86.80
2022-10-19T23:20:09.112Z,86.70
2022-10-19T23:22:37.356Z,86.70
2022-10-19T23:25:07.035Z,86.80
2022-10-19T23:27:36.900Z,86.80
2022-10-19T23:30:06.864Z,86.90
2022-10-19T23:32:35.188Z,86.90
2022-10-19T23:35:03.453Z,86.90
2022-10-19T23:37:31.723Z,86.90
2022-10-19T23:39:59.970Z,87.00
2022-10-19T23:42:28.214Z,87.10
2022-10-19T23:44:57.886Z,87.10
2022-10-19T23:47:26.141Z,87.20
2022-10-19T23:49:54.359Z,87.20
2022-10-19T23:52:22.591Z,87.20
2022-10-19T23:54:50.842Z,87.20
2022-10-19T23:57:19.077Z,87.30
2022-10-19T23:59:47.322Z,87.10
